createdAt,value
2022-10-30T00:01:46.936Z,13.10
2022-10-30T00:06:53.962Z,13.90
2022-10-30T00:12:01.061Z,12.40
2022-10-30T00:17:07.963Z,11.80
2022-10-30T00:22:14.857Z,11.50
2022-10-30T00:27:21.912Z,12.60
2022-10-30T00:32:30.449Z,14.10
2022-10-30T00:37:37.440Z,13.60
2022-10-30T00:42:44.874Z,12.70
2022-10-30T00:47:57.466Z,12.00
2022-10-30T00:53:08.492Z,12.10
2022-10-30T00:58:19.233Z,12.60
2022-10-30T01:03:29.419Z,13.10
2022-10-30T01:08:37.373Z,12.30
2022-10-30T01:13:48.226Z,13.60
2022-10-30T01:19:01.545Z,13.60
2022-10-30T01:24:29.867Z,13.80
2022-10-30T01:29:52.349Z,13.50
2022-10-30T01:35:05.168Z,14.10
2022-10-30T01:40:16.524Z,14.00
2022-10-30T01:45:36.654Z,14.90
2022-10-30T01:50:51.309Z,14.80
2022-10-30T01:56:14.206Z,14.10
2022-10-30T02:01:22.349Z,14.50
2022-10-30T02:06:29.604Z,15.10
2022-10-30T02:11:38.756Z,15.00
2022-10-30T02:16:51.476Z,13.60
2022-10-30T02:21:59.627Z,14.10
2022-10-30T02:27:07.503Z,13.60
2022-10-30T02:32:14.502Z,15.80
2022-10-30T02:37:22.095Z,14.70
2022-10-30T02:42:29.032Z,14.30
2022-10-30T02:47:36.030Z,13.30
2022-10-30T02:52:43.020Z,13.20
2022-10-30T02:57:49.984Z,15.10
2022-10-30T03:02:59.170Z,13.00
2022-10-30T03:08:07.018Z,13.70
2022-10-30T03:13:13.915Z,13.60
2022-10-30T03:18:20.937Z,15.10
2022-10-30T03:23:28.537Z,16.10
2022-10-30T03:28:35.516Z,19.10
2022-10-30T03:33:43.955Z,16.10
2022-10-30T03:38:52.222Z,14.50
2022-10-30T03:43:59.460Z,13.40
2022-10-30T03:49:06.706Z,13.20
2022-10-30T03:54:13.738Z,14.70
2022-10-30T03:59:20.781Z,14.00
2022-10-30T04:04:43.416Z,14.50
2022-10-30T04:09:50.526Z,15.40
2022-10-30T04:14:57.532Z,13.90
2022-10-30T04:20:05.476Z,13.60
2022-10-30T04:25:13.150Z,14.50
2022-10-30T04:30:21.543Z,15.00
2022-10-30T04:35:30.557Z,18.40
2022-10-30T04:40:39.362Z,15.70
2022-10-30T04:45:47.195Z,14.10
2022-10-30T04:50:54.205Z,14.60
2022-10-30T04:56:05.638Z,14.80
2022-10-30T05:01:12.881Z,15.10
2022-10-30T05:06:24.382Z,14.50
2022-10-30T05:11:31.414Z,14.00
2022-10-30T05:16:38.512Z,14.90
2022-10-30T05:21:45.656Z,16.00
2022-10-30T05:26:53.423Z,14.30
2022-10-30T05:32:00.616Z,13.30
2022-10-30T05:37:17.478Z,12.80
2022-10-30T05:42:24.524Z,13.60
2022-10-30T05:47:32.302Z,13.70
2022-10-30T05:52:39.343Z,15.50
2022-10-30T05:57:48.674Z,13.60
2022-10-30T06:03:02.857Z,12.80
2022-10-30T06:08:11.476Z,13.50
2022-10-30T06:13:19.409Z,12.70
2022-10-30T06:18:39.706Z,13.10
2022-10-30T06:23:52.118Z,13.70
2022-10-30T06:29:37.729Z,14.50
2022-10-30T06:45:24.710Z,16.30
2022-10-30T06:50:31.811Z,15.40
2022-10-30T06:55:38.922Z,15.50
2022-10-30T07:01:02.107Z,16.70
2022-10-30T07:06:31.831Z,19.90
2022-10-30T07:11:45.925Z,24.70
2022-10-30T07:17:19.632Z,14.80
2022-10-30T07:22:39.303Z,14.50
2022-10-30T07:27:49.092Z,14.40
2022-10-30T07:33:18.050Z,12.10
2022-10-30T07:38:36.767Z,13.00
2022-10-30T07:44:02.096Z,13.20
2022-10-30T07:49:28.013Z,14.00
2022-10-30T07:54:39.158Z,13.70
2022-10-30T08:00:11.116Z,13.60
2022-10-30T08:05:25.463Z,12.80
2022-10-30T08:10:48.229Z,13.90
2022-10-30T08:15:55.099Z,14.70
2022-10-30T08:21:02.138Z,14.00
2022-10-30T08:26:09.475Z,12.30
2022-10-30T08:31:16.514Z,12.00
2022-10-30T08:36:44.060Z,14.80
2022-10-30T08:41:54.203Z,14.70
2022-10-30T08:47:01.857Z,14.70
2022-10-30T08:52:12.031Z,13.10
2022-10-30T08:57:19.233Z,13.70
2022-10-30T09:02:26.769Z,15.70
2022-10-30T09:08:01.533Z,15.30
2022-10-30T09:13:28.391Z,15.30
2022-10-30T09:18:35.709Z,13.30
2022-10-30T09:23:43.646Z,14.50
2022-10-30T09:29:10.493Z,14.00
2022-10-30T09:34:36.183Z,13.70
2022-10-30T09:40:00.667Z,11.70
2022-10-30T09:45:30.485Z,10.60
2022-10-30T09:50:48.414Z,9.20
2022-10-30T09:56:06.036Z,10.10
2022-10-30T10:01:22.104Z,11.50
2022-10-30T10:06:41.545Z,11.70
2022-10-30T10:12:14.962Z,9.90
2022-10-30T10:17:29.536Z,9.90
2022-10-30T10:22:44.335Z,9.70
2022-10-30T10:28:03.808Z,8.80
2022-10-30T10:33:35.114Z,8.60
2022-10-30T10:39:02.963Z,5.00
2022-10-30T10:44:30.472Z,5.90
2022-10-30T10:49:53.007Z,5.30
2022-10-30T10:55:04.115Z,5.80
2022-10-30T11:00:17.926Z,4.70
2022-10-30T11:05:31.686Z,5.00
2022-10-30T11:10:38.733Z,4.80
2022-10-30T11:15:53.612Z,4.50
2022-10-30T11:21:05.465Z,4.10
2022-10-30T11:26:42.134Z,3.50
2022-10-30T11:32:01.847Z,3.60
2022-10-30T11:37:32.402Z,3.70
2022-10-30T11:42:41.039Z,5.40
2022-10-30T11:47:49.034Z,4.50
2022-10-30T11:52:58.311Z,7.70
2022-10-30T11:58:06.456Z,6.40
2022-10-30T12:03:30.616Z,7.30
2022-10-30T12:08:37.810Z,5.80
2022-10-30T12:13:45.075Z,6.80
2022-10-30T12:18:59.413Z,8.80
2022-10-30T12:24:17.696Z,10.90
2022-10-30T12:29:47.929Z,11.60
2022-10-30T12:35:02.196Z,13.00
2022-10-30T12:40:16.846Z,10.90
2022-10-30T12:45:30.992Z,11.10
2022-10-30T12:50:45.595Z,12.80
2022-10-30T12:55:56.673Z,12.30
2022-10-30T13:01:13.226Z,15.20
2022-10-30T13:06:25.353Z,15.80
2022-10-30T13:11:47.198Z,14.30
2022-10-30T13:16:54.889Z,15.10
2022-10-30T13:27:19.368Z,20.40
2022-10-30T13:32:43.125Z,15.70
2022-10-30T13:37:54.958Z,14.70
2022-10-30T13:43:16.476Z,15.60
2022-10-30T13:48:35.536Z,17.20
2022-10-30T13:53:45.889Z,15.10
2022-10-30T13:59:04.382Z,15.00
2022-10-30T14:04:18.761Z,14.20
2022-10-30T14:09:34.698Z,15.20
2022-10-30T14:14:48.750Z,13.10
2022-10-30T14:20:29.085Z,13.10
2022-10-30T14:25:36.279Z,13.80
2022-10-30T14:30:46.986Z,13.90
2022-10-30T14:36:16.457Z,12.60
2022-10-30T14:41:32.860Z,12.50
2022-10-30T14:46:49.816Z,14.90
2022-10-30T14:52:14.051Z,14.70
2022-10-30T14:57:45.176Z,12.20
2022-10-30T15:02:58.408Z,10.40
2022-10-30T15:08:20.773Z,10.10
2022-10-30T15:13:27.778Z,26.80
2022-10-30T15:18:35.729Z,25.70
2022-10-30T15:23:44.144Z,25.20
2022-10-30T15:28:53.813Z,17.50
2022-10-30T15:34:00.794Z,17.60
2022-10-30T15:39:11.979Z,13.10
2022-10-30T15:44:22.655Z,15.90
2022-10-30T15:49:34.647Z,18.80
2022-10-30T15:54:45.792Z,37.40
2022-10-30T15:59:57.747Z,30.70
2022-10-30T16:05:18.125Z,23.50
2022-10-30T16:10:25.645Z,19.40
2022-10-30T16:15:36.060Z,13.60
2022-10-30T16:20:46.163Z,33.20
2022-10-30T16:25:57.222Z,45.50
2022-10-30T16:31:06.720Z,32.50
2022-10-30T16:36:17.120Z,53.30
2022-10-30T16:41:27.240Z,38.20
2022-10-30T16:46:41.317Z,22.00
2022-10-30T16:51:49.276Z,53.50
2022-10-30T16:57:01.520Z,29.70
2022-10-30T17:02:17.154Z,29.20
2022-10-30T17:07:27.112Z,27.20
2022-10-30T17:12:34.336Z,28.60
2022-10-30T17:17:43.374Z,22.00
2022-10-30T17:22:52.658Z,22.00
2022-10-30T17:28:00.101Z,23.10
2022-10-30T17:33:26.642Z,25.00
2022-10-30T17:38:33.767Z,24.00
2022-10-30T17:43:50.641Z,24.30
2022-10-30T17:48:57.831Z,22.00
2022-10-30T17:54:07.305Z,19.60
2022-10-30T17:59:14.311Z,17.90
2022-10-30T18:04:22.177Z,17.60
2022-10-30T18:09:29.076Z,16.90
2022-10-30T18:14:36.480Z,16.90
2022-10-30T18:19:45.817Z,18.00
2022-10-30T18:24:57.306Z,20.60
2022-10-30T18:30:05.297Z,17.60
2022-10-30T18:35:28.438Z,29.20
2022-10-30T18:40:35.698Z,22.50
2022-10-30T18:45:44.258Z,28.70
2022-10-30T18:50:51.295Z,31.60
2022-10-30T18:55:58.252Z,22.20
2022-10-30T19:01:13.129Z,19.20
2022-10-30T19:06:22.733Z,23.60
2022-10-30T19:11:31.895Z,17.80
2022-10-30T19:16:39.033Z,20.10
2022-10-30T19:21:46.107Z,17.40
2022-10-30T19:26:53.140Z,38.20
2022-10-30T19:32:00.058Z,24.90
2022-10-30T19:37:07.446Z,24.10
2022-10-30T19:42:14.412Z,22.60
2022-10-30T19:47:21.531Z,22.30
2022-10-30T19:52:29.479Z,21.30
2022-10-30T20:02:42.067Z,26.90
2022-10-30T20:08:00.431Z,26.00
2022-10-30T20:13:08.701Z,22.90
2022-10-30T20:23:24.211Z,22.30
2022-10-30T20:28:34.139Z,20.80
2022-10-30T20:33:41.389Z,22.80
2022-10-30T20:38:48.341Z,24.80
2022-10-30T20:43:55.368Z,29.40
2022-10-30T20:49:16.766Z,34.30
2022-10-30T20:54:25.591Z,27.40
2022-10-30T20:59:32.599Z,25.50
2022-10-30T21:04:39.651Z,24.50
2022-10-30T21:09:46.574Z,26.80
2022-10-30T21:14:53.571Z,28.70
2022-10-30T21:20:00.560Z,26.40
2022-10-30T21:25:08.803Z,26.20
2022-10-30T21:30:17.805Z,26.30
2022-10-30T21:35:26.432Z,24.60
2022-10-30T21:40:33.312Z,25.00
2022-10-30T21:45:40.691Z,24.30
2022-10-30T21:50:47.643Z,26.10
2022-10-30T21:55:54.586Z,26.20
2022-10-30T22:01:01.566Z,27.00
2022-10-30T22:06:14.223Z,27.00
2022-10-30T22:11:23.204Z,27.60
2022-10-30T22:16:31.599Z,28.70
2022-10-30T22:21:38.564Z,27.40
2022-10-30T22:26:45.580Z,30.10
2022-10-30T22:31:52.932Z,28.20
2022-10-30T22:37:00.258Z,28.20
2022-10-30T22:42:07.322Z,26.90
2022-10-30T22:47:14.364Z,29.00
2022-10-30T22:52:21.363Z,26.20
2022-10-30T22:57:28.383Z,26.50
2022-10-30T23:02:35.295Z,26.00
2022-10-30T23:07:42.248Z,28.80
2022-10-30T23:12:49.240Z,28.10
2022-10-30T23:17:56.851Z,28.60
2022-10-30T23:23:06.562Z,29.40
2022-10-30T23:28:14.041Z,25.00
2022-10-30T23:33:20.988Z,25.50
2022-10-30T23:38:27.892Z,27.10
2022-10-30T23:43:34.810Z,28.70
2022-10-30T23:48:41.694Z,31.90
2022-10-30T23:53:48.941Z,29.90
2022-10-30T23:58:56.045Z,30.60
